Weather observations for the past three days for
Ottawa Putnam County Airport
| Date | Time (edt) | Wind (mph) | Vis. (mi.) | Weather | Sky Cond. | Temperature (ºF) | Relative Humidity | Wind Chill (°F) | Heat Index (°F) | Pressure | Precipitation (in) | ||||||
|---|---|---|---|---|---|---|---|---|---|---|---|---|---|---|---|---|---|
| Air | Dwpt | 6 hour | altimeter (in) | sea level (mb) | 1 hr | 3 hr | 6 hr | ||||||||||
| Max. | Min. | ||||||||||||||||
| 07 | 16:55 | NW 16 G 22 | 10.00 | Partly Cloudy | SCT080 SCT090 | 57.2 | 32 | 39% | 29.92 | 0.0 | |||||||
| 07 | 16:35 | W 15 G 23 | 10.00 | A Few Clouds | FEW070 | 59 | 32 | 36% | 29.93 | 0.0 | |||||||
| 07 | 16:15 | W 12 G 22 | 10.00 | Partly Cloudy | SCT070 | 57.2 | 32 | 39% | 29.93 | 0.0 | |||||||
| 07 | 15:55 | W 20 G 26 | 10.00 | Partly Cloudy | SCT070 | 59 | 33.8 | 39% | 29.94 | 0.0 | |||||||
| 07 | 15:35 | NW 15 G 22 | 10.00 | A Few Clouds | FEW060 FEW070 | 57.2 | 33.8 | 41% | 29.94 | 0.0 | |||||||
| 07 | 15:15 | NW 14 G 22 | 10.00 | A Few Clouds | FEW060 | 59 | 32 | 36% | 29.94 | 0.0 | |||||||
| 07 | 14:55 | NW 13 G 22 | 10.00 | A Few Clouds | FEW060 | 57.2 | 32 | 39% | 29.94 | 0.0 | |||||||
| 07 | 14:35 | NW 14 G 17 | 10.00 | A Few Clouds | FEW060 | 57.2 | 33.8 | 41% | 29.94 | 0.0 | |||||||
| 07 | 14:15 | NW 17 G 30 | 10.00 | A Few Clouds | FEW060 | 57.2 | 33.8 | 41% | 29.95 | 0.0 | |||||||
| 07 | 13:55 | NW 20 G 25 | 10.00 | Fair | CLR | 57.2 | 33.8 | 57.6 | 42.4 | 41% | 29.96 | 0.0 | |||||
| 07 | 13:35 | NW 20 G 28 | 10.00 | A Few Clouds | FEW055 | 57.2 | 32 | 39% | 29.96 | 0.0 | |||||||
| 07 | 13:15 | W 20 G 25 | 10.00 | A Few Clouds | FEW055 | 55.4 | 33.8 | 44% | 29.96 | 0.0 | |||||||
| 07 | 12:55 | W 18 G 24 | 10.00 | Fair | CLR | 55.4 | 33.8 | 44% | 29.97 | 0.0 | |||||||
| 07 | 12:35 | W 15 | 10.00 | Fair | CLR | 53.6 | 33.8 | 47% | 29.97 | 0.0 | |||||||
| 07 | 12:15 | W 16 | 10.00 | Fair | CLR | 53.6 | 35.6 | 51% | 29.98 | 0.0 | |||||||
| 07 | 11:55 | W 16 | 10.00 | Fair | CLR | 51.8 | 35.6 | 54% | 29.98 | 0.0 | |||||||
| 07 | 11:35 | W 14 G 23 | 10.00 | Fair | CLR | 51.8 | 35.6 | 54% | 29.97 | 0.0 | |||||||
| 07 | 11:15 | NW 15 G 21 | 10.00 | Fair | CLR | 51.8 | 35.6 | 54% | 29.97 | 0.0 | |||||||
| 07 | 10:55 | W 12 | 10.00 | Fair | CLR | 51.8 | 37.4 | 58% | 29.97 | 0.0 | |||||||
| 07 | 10:35 | W 13 | 10.00 | Fair | CLR | 50 | 35.6 | 58% | 46 | 29.96 | 0.0 | ||||||
| 07 | 10:15 | W 9 | 10.00 | Fair | CLR | 48.2 | 37.4 | 66% | 45 | 29.96 | 0.0 | ||||||
| 07 | 09:55 | W 10 | 10.00 | Fair | CLR | 48.2 | 37.4 | 66% | 44 | 29.97 | 0.0 | ||||||
| 07 | 09:35 | W 13 | 10.00 | Fair | CLR | 46.4 | 37.4 | 71% | 41 | 29.97 | 0.0 | ||||||
| 07 | 09:15 | W 12 | 10.00 | Fair | CLR | 46.4 | 37.4 | 71% | 42 | 29.97 | 0.0 | ||||||
| 07 | 08:55 | W 12 | 10.00 | Fair | CLR | 44.6 | 35.6 | 71% | 39 | 29.97 | 0.0 | ||||||
| 07 | 08:35 | W 10 | 10.00 | Fair | CLR | 44.6 | 35.6 | 71% | 40 | 29.97 | 0.0 | ||||||
| 07 | 08:15 | W 8 | 10.00 | Fair | CLR | 42.8 | 35.6 | 76% | 39 | 29.97 | 0.0 | ||||||
| 07 | 07:55 | W 8 | 10.00 | Fair | CLR | 42.8 | 35.6 | 43.9 | 40.1 | 76% | 39 | 29.97 | 0.0 | ||||
| 07 | 07:35 | W 8 | 10.00 | Fair | CLR | 41 | 35.6 | 81% | 36 | 29.97 | 0.0 | ||||||
| 07 | 07:15 | W 8 | 10.00 | Fair | CLR | 41 | 35.6 | 81% | 36 | 29.96 | 0.0 | ||||||
| 07 | 06:55 | W 9 | 10.00 | Fair | CLR | 41 | 35.6 | 81% | 36 | 29.95 | 0.0 | ||||||
| 07 | 06:35 | W 8 | 10.00 | Fair | CLR | 41 | 35.6 | 81% | 36 | 29.95 | 0.0 | ||||||
| 07 | 06:15 | W 8 | 10.00 | Fair | CLR | 41 | 35.6 | 81% | 36 | 29.95 | 0.0 | ||||||
| 07 | 05:55 | W 8 | 10.00 | Fair | CLR | 41 | 35.6 | 81% | 36 | 29.95 | 0.0 | ||||||
| 07 | 05:35 | W 9 | 10.00 | Fair | CLR | 41 | 35.6 | 81% | 36 | 29.94 | 0.0 | ||||||
| 07 | 05:15 | W 9 | 10.00 | Fair | CLR | 41 | 35.6 | 81% | 36 | 29.94 | 0.0 | ||||||
| 07 | 04:55 | W 9 | 10.00 | Fair | CLR | 41 | 35.6 | 81% | 36 | 29.94 | 0.0 | ||||||
| 07 | 04:35 | W 8 | 10.00 | Fair | CLR | 42.8 | 35.6 | 76% | 39 | 29.94 | 0.0 | ||||||
| 07 | 04:15 | W 10 | 10.00 | Fair | CLR | 42.8 | 35.6 | 76% | 38 | 29.94 | 0.0 | ||||||
| 07 | 03:55 | W 10 | 10.00 | Fair | CLR | 42.8 | 37.4 | 81% | 38 | 29.94 | 0.0 | ||||||
| 07 | 03:35 | W 10 | 10.00 | Fair | CLR | 42.8 | 39.2 | 87% | 38 | 29.94 | 0.0 | ||||||
| 07 | 03:15 | W 8 | 10.00 | Fair | CLR | 42.8 | 39.2 | 87% | 39 | 29.94 | 0.0 | ||||||
| 07 | 02:55 | W 6 | 10.00 | Fair | CLR | 42.8 | 39.2 | 87% | 40 | 29.94 | 0.0 | ||||||
| 07 | 02:35 | W 6 | 10.00 | A Few Clouds | FEW075 | 42.8 | 39.2 | 87% | 40 | 29.95 | 0.0 | ||||||
| 07 | 02:15 | SW 5 | 10.00 | Mostly Cloudy | BKN075 | 44.6 | 41 | 87% | 43 | 29.95 | 0.0 | ||||||
| 07 | 01:55 | SW 5 | 10.00 | Overcast | OVC075 | 42.8 | 41 | 52.9 | 42.4 | 93% | 41 | 29.95 | 0.0 | ||||
| 07 | 01:35 | SW 6 | 10.00 | Overcast | OVC075 | 42.8 | 42.8 | 100% | 40 | 29.95 | 0.0 | ||||||
| 07 | 01:15 | SW 3 | 10.00 | Overcast | OVC075 | 42.8 | 42.8 | 100% | 29.95 | 0.0 | |||||||
| 07 | 00:55 | SW 3 | 10.00 | Overcast | SCT065 OVC080 | 42.8 | 42.8 | 100% | 29.95 | 0.0 | |||||||
| 07 | 00:35 | S 3 | 10.00 | Mostly Cloudy | SCT065 BKN080 | 42.8 | 41 | 93% | 29.95 | 0.0 | |||||||
| 07 | 00:15 | S 3 | 10.00 | Mostly Cloudy | BKN065 | 44.6 | 42.8 | 93% | 29.95 | 0.0 | |||||||
| 06 | 23:55 | S 3 | 10.00 | Partly Cloudy | SCT075 SCT085 | 44.6 | 42.8 | 93% | 29.95 | 0.0 | |||||||
| 06 | 23:35 | S 3 | 10.00 | Partly Cloudy | SCT075 | 46.4 | 42.8 | 87% | 29.96 | 0.0 | |||||||
| 06 | 23:15 | Calm | 10.00 | Partly Cloudy | SCT075 | 48.2 | 41 | 76% | 29.96 | 0.0 | |||||||
| 06 | 22:55 | Vrbl 2 | 10.00 | Overcast | OVC075 | 48.2 | 41 | 76% | 29.96 | 0.0 | |||||||
| 06 | 22:35 | W 3 | 10.00 | Overcast | OVC075 | 48.2 | 41 | 76% | 29.97 | 0.0 | |||||||
| 06 | 22:15 | SW 5 | 10.00 | Overcast | SCT065 OVC075 | 48.2 | 41 | 76% | 47 | 29.96 | 0.0 | ||||||
| 06 | 21:55 | SW 3 | 10.00 | Mostly Cloudy | BKN065 BKN080 | 48.2 | 41 | 76% | 29.96 | 0.0 | |||||||
| 06 | 21:35 | SW 5 | 10.00 | A Few Clouds | FEW065 | 50 | 39.2 | 67% | 49 | 29.95 | 0.0 | ||||||
| 06 | 21:15 | S 5 | 10.00 | A Few Clouds | FEW070 | 50 | 39.2 | 67% | 49 | 29.94 | 0.0 | ||||||
| 06 | 20:55 | SW 3 | 10.00 | A Few Clouds | FEW070 | 50 | 39.2 | 67% | 29.94 | 0.0 | |||||||
| 06 | 20:35 | SW 3 | 10.00 | Fair | CLR | 50 | 37.4 | 62% | 29.94 | 0.0 | |||||||
| 06 | 20:15 | SW 5 | 10.00 | Fair | CLR | 51.8 | 37.4 | 58% | 29.94 | 0.0 | |||||||
| 06 | 19:55 | SW 3 | 10.00 | Fair | CLR | 53.6 | 37.4 | 56.8 | 52.7 | 54% | 29.94 | 0.0 | |||||
| 06 | 19:35 | SW 6 | 10.00 | A Few Clouds | FEW120 | 53.6 | 35.6 | 51% | 29.94 | 0.0 | |||||||
| 06 | 19:15 | W 7 | 10.00 | Partly Cloudy | SCT120 | 53.6 | 33.8 | 47% | 29.94 | 0.0 | |||||||
| 06 | 18:55 | W 7 | 10.00 | Mostly Cloudy | BKN120 | 53.6 | 33.8 | 47% | 29.95 | 0.0 | |||||||
| 06 | 18:35 | W 8 | 10.00 | Mostly Cloudy | BKN120 | 53.6 | 33.8 | 47% | 29.94 | 0.0 | |||||||
| 06 | 18:15 | W 9 | 10.00 | Mostly Cloudy | BKN110 | 53.6 | 35.6 | 51% | 29.94 | 0.0 | |||||||
| 06 | 17:55 | W 12 | 10.00 | Overcast | OVC100 | 53.6 | 35.6 | 51% | 29.94 | 0.0 | |||||||
| 06 | 17:35 | NW 14 | 10.00 | Overcast | OVC100 | 53.6 | 32 | 44% | 29.94 | 0.0 | |||||||
| 06 | 17:15 | NW 12 | 10.00 | Overcast | OVC100 | 53.6 | 33.8 | 47% | 29.93 | 0.0 | |||||||
| 06 | 16:55 | NW 12 | 10.00 | Mostly Cloudy | BKN100 | 53.6 | 32 | 44% | 29.93 | 0.0 | |||||||
| 06 | 16:35 | W 10 | 10.00 | Overcast | OVC100 | 53.6 | 33.8 | 47% | 29.93 | 0.0 | |||||||
| 06 | 16:15 | W 8 | 10.00 | Overcast | OVC100 | 53.6 | 33.8 | 47% | 29.93 | 0.0 | |||||||
| 06 | 15:55 | W 8 | 10.00 | Overcast | OVC100 | 53.6 | 33.8 | 47% | 29.93 | 0.0 | |||||||
| 06 | 15:35 | NW 13 | 10.00 | Overcast | OVC100 | 53.6 | 32 | 44% | 29.93 | 0.0 | |||||||
| 06 | 15:15 | W 13 | 10.00 | Mostly Cloudy | BKN100 | 55.4 | 33.8 | 44% | 29.93 | 0.0 | |||||||
| 06 | 14:55 | NW 9 | 10.00 | Mostly Cloudy | BKN100 | 55.4 | 33.8 | 44% | 29.93 | 0.0 | |||||||
| 06 | 14:35 | W 13 G 17 | 10.00 | Partly Cloudy | SCT110 | 55.4 | 33.8 | 44% | 29.93 | 0.0 | |||||||
| 06 | 14:15 | NW 10 | 10.00 | Mostly Cloudy | BKN120 | 57.2 | 33.8 | 41% | 29.92 | 0.0 | |||||||
| 06 | 13:55 | W 12 G 18 | 10.00 | Partly Cloudy | SCT120 | 55.4 | 35.6 | 56.5 | 44.4 | 47% | 29.93 | 0.0 | |||||
| 06 | 13:35 | Vrbl 6 | 10.00 | Fair | CLR | 55.4 | 33.8 | 44% | 29.93 | 0.0 | |||||||
| 06 | 13:15 | Vrbl 5 | 10.00 | Fair | CLR | 55.4 | 33.8 | 44% | 29.93 | 0.0 | |||||||
| 06 | 12:55 | NW 10 | 10.00 | Fair | CLR | 55.4 | 35.6 | 47% | 29.94 | 0.0 | |||||||
| 06 | 12:35 | NW 8 | 10.00 | Fair | CLR | 55.4 | 35.6 | 47% | 29.94 | 0.0 | |||||||
| 06 | 12:15 | NW 9 | 10.00 | Fair | CLR | 53.6 | 35.6 | 51% | 29.94 | 0.0 | |||||||
| 06 | 11:55 | NW 10 G 17 | 10.00 | Fair | CLR | 53.6 | 35.6 | 51% | 29.94 | 0.0 | |||||||
| 06 | 11:35 | NW 10 | 10.00 | Fair | CLR | 53.6 | 35.6 | 51% | 29.93 | 0.0 | |||||||
| 06 | 11:15 | NW 9 | 10.00 | Fair | CLR | 53.6 | 37.4 | 54% | 29.93 | 0.0 | |||||||
| 06 | 10:55 | NW 9 | 10.00 | Fair | CLR | 51.8 | 35.6 | 54% | 29.92 | 0.0 | |||||||
| 06 | 10:35 | N 13 | 10.00 | Fair | CLR | 51.8 | 37.4 | 58% | 29.91 | 0.0 | |||||||
| 06 | 10:15 | N 14 | 10.00 | Fair | CLR | 51.8 | 37.4 | 58% | 29.91 | 0.0 | |||||||
| 06 | 09:55 | N 10 | 10.00 | Fair | CLR | 50 | 39.2 | 67% | 46 | 29.9 | 0.0 | ||||||
| 06 | 09:35 | NW 12 | 10.00 | Fair | CLR | 50 | 39.2 | 67% | 46 | 29.9 | 0.0 | ||||||
| 06 | 09:15 | NW 9 | 10.00 | Mostly Cloudy | BKN080 | 48.2 | 42.8 | 82% | 45 | 29.9 | 0.0 | ||||||
| 06 | 08:55 | NW 8 | 10.00 | Overcast | OVC080 | 48.2 | 44.6 | 87% | 45 | 29.89 | 0.0 | ||||||
| 06 | 08:35 | NW 7 | 10.00 | Overcast | OVC080 | 46.4 | 42.8 | 87% | 43 | 29.88 | 0.0 | ||||||
| 06 | 08:15 | W 9 | 10.00 | Mostly Cloudy | BKN080 | 46.4 | 44.6 | 93% | 42 | 29.88 | 0.0 | ||||||
| 06 | 07:55 | W 8 | 10.00 | Overcast | OVC080 | 44.6 | 44.6 | 45.7 | 43.9 | 100% | 41 | 29.87 | 0.0 | ||||
| 06 | 07:35 | NW 7 | 10.00 | Overcast | OVC080 | 44.6 | 44.6 | 100% | 41 | 29.85 | 0.0 | ||||||
| 06 | 07:15 | W 7 | 10.00 | Overcast | BKN080 OVC100 | 44.6 | 44.6 | 100% | 41 | 29.85 | 0.0 | ||||||
| 06 | 06:55 | W 6 | 10.00 | Overcast | BKN070 OVC080 | 44.6 | 44.6 | 100% | 42 | 29.85 | 0.0 | ||||||
| 06 | 06:35 | W 5 | 10.00 | Overcast | OVC070 | 44.6 | 44.6 | 100% | 43 | 29.84 | 0.0 | ||||||
| 06 | 06:15 | W 6 | 10.00 | Overcast | OVC060 | 44.6 | 44.6 | 100% | 42 | 29.83 | 0.0 | ||||||
| 06 | 05:55 | NW 6 | 10.00 | Overcast | BKN060 OVC070 | 44.6 | 44.6 | 100% | 42 | 29.82 | 0.0 | ||||||
| 06 | 05:35 | W 6 | 10.00 | Overcast | OVC060 | 44.6 | 44.6 | 100% | 42 | 29.82 | 0.0 | ||||||
| 06 | 05:15 | W 3 | 10.00 | Overcast | OVC060 | 44.6 | 44.6 | 100% | 29.82 | 0.0 | |||||||
| 06 | 04:55 | NW 5 | 10.00 | Overcast | OVC060 | 44.6 | 44.6 | 100% | 43 | 29.82 | 0.0 | 0.01 | |||||
| 06 | 04:35 | W 1 | 10.00 | Light Rain | FEW035 FEW043 OVC050 | 44.6 | 42.8 | 93% | 29.82 | 0.0 | |||||||
| 06 | 04:15 | NW 2 | 10.00 | Light Rain | SCT044 BKN055 OVC070 | 44.6 | 42.8 | 93% | 29.82 | 0.0 | |||||||
| 06 | 03:55 | W 2 | 10.00 | Light Rain | FEW042 BKN055 OVC070 | 44.6 | 44.6 | 100% | 29.83 | 0.0 | 0.02 | ||||||
| 06 | 03:35 | NW 6 | 10.00 | Light Rain | FEW040 SCT047 OVC055 | 44.6 | 44.6 | 100% | 42 | 29.81 | 0.0 | ||||||
| 06 | 03:15 | NW 5 | 8.00 | Light Rain | SCT040 BKN050 OVC065 | 44.6 | 44.6 | 100% | 43 | 29.82 | 0.0 | ||||||
| 06 | 02:55 | W 3 | 7.00 | Light Rain | FEW044 OVC049 | 44.6 | 44.6 | 100% | 29.83 | 0.0 | 0.06 | ||||||
| 06 | 02:35 | W 5 | 7.00 | Light Rain | OVC049 | 44.6 | 44.6 | 100% | 43 | 29.83 | 0.0 | ||||||
| 06 | 02:15 | NW 3 | 6.00 | Light Rain Fog/Mist | OVC047 | 44.6 | 44.6 | 100% | 29.82 | 0.0 | |||||||
| 06 | 01:55 | W 5 | 10.00 | Light Rain | OVC045 | 46.4 | 46.4 | 48.4 | 45.1 | 100% | 45 | 29.83 | 0.0 | 0.07 | |||
| 06 | 01:35 | NW 3 | 4.00 | Light Rain Fog/Mist | OVC045 | 46.4 | 46.4 | 100% | 29.82 | 0.0 | |||||||
| 06 | 01:15 | Calm | 4.00 | Light Rain Fog/Mist | OVC043 | 46.4 | 46.4 | 100% | 29.82 | 0.0 | |||||||
| 06 | 00:55 | Calm | 5.00 | Light Rain Fog/Mist | OVC043 | 44.6 | 44.6 | 100% | 29.83 | 0.0 | 0.09 | ||||||
| 06 | 00:35 | N 3 | 5.00 | Light Rain Fog/Mist | SCT010 SCT017 OVC043 | 44.6 | 44.6 | 100% | 29.83 | 0.0 | |||||||
| 06 | 00:15 | Vrbl 6 | 5.00 | Light Rain Fog/Mist | SCT010 BKN028 OVC041 | 46.4 | 46.4 | 100% | 44 | 29.82 | 0.0 | ||||||
| 05 | 23:55 | SW 1 | 5.00 | Light Rain Fog/Mist | OVC041 | 46.4 | 46.4 | 100% | 29.83 | 0.0 | 0.07 | ||||||
| 05 | 23:35 | SW 3 | 5.00 | Light Rain Fog/Mist | BKN039 OVC060 | 46.4 | 46.4 | 100% | 29.83 | 0.0 | |||||||
| 05 | 23:15 | SW 1 | 5.00 | Light Rain Fog/Mist | BKN041 OVC060 | 48.2 | 46.4 | 94% | 29.83 | 0.0 | |||||||
| 05 | 22:55 | NW 1 | 7.00 | Light Rain | BKN041 OVC060 | 48.2 | 46.4 | 94% | 29.83 | 0.0 | 0.05 | ||||||
| 05 | 22:35 | N 1 | 4.00 | Light Rain Fog/Mist | SCT041 BKN050 OVC070 | 48.2 | 46.4 | 94% | 29.83 | 0.0 | |||||||
| 05 | 22:15 | Calm | 6.00 | Light Rain Fog/Mist | FEW050 BKN060 OVC070 | 48.2 | 48.2 | 100% | 29.82 | 0.0 | |||||||
| 05 | 21:55 | Vrbl 3 | 3.00 | Light Rain Fog/Mist | FEW042 OVC060 | 48.2 | 48.2 | 100% | 29.82 | 0.0 | 0.08 | ||||||
| 05 | 21:35 | Vrbl 1 | 4.00 | Light Rain Fog/Mist | BKN042 OVC050 | 48.2 | 48.2 | 100% | 29.83 | 0.0 | |||||||
| 05 | 21:15 | W 3 | 5.00 | Light Rain Fog/Mist | BKN044 OVC050 | 48.2 | 48.2 | 100% | 29.82 | 0.0 | |||||||
| 05 | 20:55 | NW 3 | 3.00 | Light Rain Fog/Mist | OVC042 | 48.2 | 48.2 | 100% | 29.81 | 0.0 | 0.1 | ||||||
| 05 | 20:35 | W 3 | 3.00 | Light Rain Fog/Mist | OVC040 | 48.2 | 48.2 | 100% | 29.81 | 0.0 | |||||||
| 05 | 20:15 | NW 3 | 3.00 | Light Rain Fog/Mist | OVC038 | 48.2 | 48.2 | 100% | 29.81 | 0.0 | |||||||
| 05 | 19:55 | W 3 | 2.50 | Light Rain Fog/Mist | OVC038 | 48.2 | 48.2 | 52.7 | 47.8 | 100% | 29.81 | 0.0 | 0.09 | ||||
| 05 | 19:35 | NW 5 | 2.50 | Light Rain Fog/Mist | OVC034 | 48.2 | 48.2 | 100% | 47 | 29.8 | 0.0 | ||||||
| 05 | 19:15 | NW 3 | 3.00 | Light Rain Fog/Mist | BKN030 OVC035 | 48.2 | 48.2 | 100% | 29.81 | 0.0 | |||||||
| 05 | 18:55 | W 5 | 4.00 | Light Rain Fog/Mist | OVC028 | 50 | 50 | 100% | 49 | 29.81 | 0.0 | 0.01 | |||||
| 05 | 18:35 | NW 8 | 6.00 | Light Rain Fog/Mist | FEW009 OVC026 | 50 | 50 | 100% | 47 | 29.81 | 0.0 | ||||||
| 05 | 18:15 | N 8 | 10.00 | Overcast | SCT011 OVC024 | 50 | 48.2 | 94% | 47 | 29.8 | 0.0 | ||||||
| 05 | 17:55 | N 12 | 8.00 | Light Drizzle | FEW008 BKN011 OVC022 | 50 | 48.2 | 94% | 46 | 29.8 | 0.0 | 0.06 | |||||
| 05 | 17:35 | N 6 | 6.00 | Light Rain Fog/Mist | FEW007 SCT011 OVC024 | 50 | 50 | 100% | 48 | 29.79 | 0.0 | ||||||
| 05 | 17:15 | N 10 | 4.00 | Light Rain Fog/Mist | BKN009 BKN013 OVC026 | 50 | 50 | 100% | 46 | 29.79 | 0.0 | ||||||
| 05 | 16:55 | N 9 | 2.50 | Rain Fog/Mist | BKN011 OVC021 | 50 | 50 | 100% | 47 | 29.8 | 0.0 | 0.12 | |||||
| 05 | 16:35 | NW 10 | 2.50 | Light Rain Fog/Mist | SCT011 OVC021 | 50 | 50 | 100% | 46 | 29.79 | 0.0 | ||||||
| 05 | 16:15 | NW 12 | 2.50 | Light Rain Fog/Mist | BKN011 OVC021 | 51.8 | 51.8 | 100% | 29.79 | 0.0 | |||||||
| 05 | 15:55 | NW 10 | 4.00 | Light Rain Fog/Mist | OVC021 | 51.8 | 51.8 | 100% | 29.79 | 0.0 | 0.06 | ||||||
| 05 | 15:35 | N 7 | 6.00 | Light Rain Fog/Mist | BKN021 BKN065 OVC080 | 51.8 | 50 | 94% | 29.79 | 0.0 | |||||||
| 05 | 15:15 | NW 9 | 3.00 | Light Rain Fog/Mist | SCT007 BKN012 OVC021 | 51.8 | 50 | 94% | 29.8 | 0.0 | |||||||
| 05 | 14:55 | NW 7 | 2.50 | Light Rain Fog/Mist | SCT009 BKN021 OVC046 | 51.8 | 51.8 | 100% | 29.81 | 0.0 | 0.08 | ||||||
| 05 | 14:35 | W 6 | 4.00 | Light Rain Fog/Mist | FEW021 SCT030 OVC046 | 51.8 | 51.8 | 100% | 29.8 | 0.0 | |||||||
| 05 | 14:15 | SW 3 | 4.00 | Light Rain Fog/Mist | OVC046 | 51.8 | 48.2 | 88% | 29.8 | 0.0 | |||||||
| 05 | 13:55 | W 5 | 4.00 | Light Rain Haze | OVC050 | 51.8 | 48.2 | 63 | 52.7 | 88% | 29.79 | 0.0 | 0.05 | ||||
| 05 | 13:35 | W 5 | 4.00 | Light Rain Haze | BKN050 BKN060 BKN080 | 53.6 | 46.4 | 77% | 29.79 | 0.0 | |||||||
| 05 | 13:15 | W 6 | 8.00 | Light Rain | SCT048 SCT060 BKN085 | 53.6 | 48.2 | 82% | 29.79 | 0.0 | |||||||
| 05 | 12:55 | W 6 | 7.00 | Light Rain | SCT032 SCT046 BKN085 | 55.4 | 48.2 | 77% | 29.79 | 0.0 | 0.01 | ||||||
| 05 | 12:35 | NW 8 | 7.00 | Light Rain Haze | FEW021 SCT027 OVC032 | 55.4 | 48.2 | 77% | 29.8 | 0.0 | |||||||
| 05 | 12:15 | NW 12 | 10.00 | Light Rain | BKN021 OVC028 | 57.2 | 50 | 77% | 29.8 | 0.0 | |||||||
| 05 | 11:55 | W 14 | 10.00 | Overcast | OVC026 | 60.8 | 53.6 | 77% | 29.79 | 0.0 | |||||||
| 05 | 11:35 | W 12 | 10.00 | Overcast | OVC026 | 60.8 | 53.6 | 77% | 29.79 | 0.0 | |||||||
| 05 | 11:15 | W 16 G 21 | 10.00 | Overcast | OVC024 | 60.8 | 53.6 | 77% | 29.78 | 0.0 | |||||||
| 05 | 10:55 | W 20 G 31 | 10.00 | Overcast | OVC024 | 60.8 | 53.6 | 77% | 29.78 | 0.0 | |||||||
| 05 | 10:35 | W 17 G 25 | 10.00 | Overcast | BKN024 OVC029 | 60.8 | 53.6 | 77% | 29.76 | 0.0 | |||||||
| 05 | 10:15 | W 23 G 29 | 10.00 | Overcast and Breezy | OVC024 | 60.8 | 53.6 | 77% | 29.75 | 0.0 | |||||||
| 05 | 09:55 | SW 17 G 22 | 10.00 | Mostly Cloudy | BKN022 BKN028 | 62.6 | 53.6 | 73% | 29.73 | 0.0 | |||||||
| 05 | 09:35 | SW 20 G 25 | 10.00 | A Few Clouds | FEW022 | 62.6 | 55.4 | 77% | 29.72 | 0.0 | |||||||
| 05 | 09:15 | SW 16 G 21 | 10.00 | Fair | CLR | 60.8 | 53.6 | 77% | 29.72 | 0.0 | |||||||
| 05 | 08:55 | SW 16 G 21 | 10.00 | Fair | CLR | 60.8 | 53.6 | 77% | 29.72 | 0.0 | |||||||
| 05 | 08:35 | SW 17 G 23 | 10.00 | Fair | CLR | 59 | 53.6 | 82% | 29.73 | 0.0 | |||||||
| 05 | 08:15 | SW 14 G 20 | 10.00 | Fair | CLR | 59 | 53.6 | 82% | 29.73 | 0.0 | |||||||
| 05 | 07:55 | SW 13 G 18 | 10.00 | Fair | CLR | 57.2 | 53.6 | 64.9 | 56.7 | 88% | 29.72 | 0.0 | |||||
| 05 | 07:35 | SW 14 G 18 | 10.00 | Fair | CLR | 57.2 | 53.6 | 88% | 29.72 | 0.0 | |||||||
| 05 | 07:15 | SW 12 | 10.00 | Fair | CLR | 57.2 | 53.6 | 88% | 29.69 | 0.0 | |||||||
| 05 | 06:55 | SW 13 | 10.00 | Fair | CLR | 57.2 | 53.6 | 88% | 29.68 | 0.0 | |||||||
| 05 | 06:35 | SW 12 | 10.00 | Fair | CLR | 57.2 | 53.6 | 88% | 29.66 | 0.0 | |||||||
| 05 | 06:15 | SW 10 | 10.00 | Fair | CLR | 57.2 | 53.6 | 88% | 29.66 | 0.0 | |||||||
| 05 | 05:55 | SW 9 | 10.00 | Fair | CLR | 57.2 | 55.4 | 94% | 29.65 | 0.0 | |||||||
| 05 | 05:35 | SW 10 | 10.00 | A Few Clouds | FEW120 | 57.2 | 55.4 | 94% | 29.66 | 0.0 | |||||||
| 05 | 05:15 | SW 12 | 10.00 | Fair | CLR | 57.2 | 55.4 | 94% | 29.67 | 0.0 | |||||||
| 05 | 04:55 | SW 15 | 10.00 | Fair | CLR | 57.2 | 55.4 | 94% | 29.67 | 0.0 | |||||||
| 05 | 04:35 | SW 13 G 20 | 10.00 | Fair | CLR | 57.2 | 55.4 | 94% | 29.65 | 0.0 | |||||||
| 05 | 04:15 | SW 12 | 10.00 | Mostly Cloudy | SCT070 SCT080 BKN110 | 57.2 | 55.4 | 94% | 29.65 | 0.0 | |||||||
| 05 | 03:55 | SW 14 G 25 | 7.00 | Light Rain | BKN070 OVC080 | 59 | 53.6 | 82% | 29.65 | 0.0 | |||||||
| 05 | 03:35 | SW 17 G 26 | 10.00 | Overcast | SCT070 BKN080 OVC085 | 62.6 | 51.8 | 68% | 29.67 | 0.0 | |||||||
| 05 | 03:15 | W 18 | 10.00 | Overcast | OVC060 | 62.6 | 51.8 | 68% | 29.66 | 0.0 | |||||||
| 05 | 02:55 | SW 14 | 10.00 | Overcast | OVC070 | 62.6 | 51.8 | 68% | 29.65 | 0.0 | |||||||
| 05 | 02:35 | SW 8 | 10.00 | Overcast | OVC070 | 62.6 | 51.8 | 68% | 29.65 | 0.0 | |||||||
| 05 | 02:15 | W 9 | 10.00 | Mostly Cloudy | BKN070 BKN090 | 62.6 | 51.8 | 68% | 29.66 | 0.0 | |||||||
| 05 | 01:55 | W 12 | 10.00 | Mostly Cloudy | BKN070 BKN090 | 64.4 | 51.8 | 73.2 | 64.9 | 64% | 29.65 | 0.0 | |||||
| 05 | 01:35 | W 12 G 17 | 10.00 | Overcast | BKN070 BKN090 OVC110 | 66.2 | 51.8 | 60% | 29.64 | 0.0 | |||||||
| 05 | 01:15 | SW 15 G 23 | 10.00 | Overcast | OVC080 | 68 | 50 | 53% | 29.63 | 0.0 | |||||||
| 05 | 00:55 | S 20 | 10.00 | Mostly Cloudy | BKN080 BKN090 | 68 | 50 | 53% | 29.61 | 0.0 | |||||||
| 05 | 00:35 | SW 17 G 23 | 10.00 | Mostly Cloudy | SCT080 BKN095 BKN110 | 68 | 50 | 53% | 29.62 | 0.0 | |||||||
| 05 | 00:15 | SW 14 | 10.00 | Mostly Cloudy | BKN080 BKN110 | 68 | 51.8 | 56% | 29.62 | 0.0 | |||||||
| 04 | 23:55 | SW 15 | 10.00 | Overcast | BKN080 OVC090 | 68 | 51.8 | 56% | 29.63 | 0.0 | |||||||
| 04 | 23:35 | S 14 | 10.00 | Mostly Cloudy | BKN100 | 68 | 51.8 | 56% | 29.63 | 0.0 | |||||||
| 04 | 23:15 | S 13 G 21 | 10.00 | Overcast | OVC090 | 68 | 51.8 | 56% | 29.63 | 0.0 | |||||||
| 04 | 22:55 | S 13 | 10.00 | Overcast | OVC090 | 68 | 51.8 | 56% | 29.64 | 0.0 | |||||||
| 04 | 22:35 | S 13 | 10.00 | Mostly Cloudy | BKN080 | 66.2 | 51.8 | 60% | 29.64 | 0.0 | |||||||
| 04 | 22:15 | S 10 | 10.00 | A Few Clouds | FEW080 | 68 | 51.8 | 56% | 29.63 | 0.0 | |||||||
| 04 | 21:55 | S 10 | 10.00 | Partly Cloudy | SCT110 | 68 | 51.8 | 56% | 29.63 | 0.0 | |||||||
| 04 | 21:35 | S 12 | 10.00 | Overcast | OVC100 | 68 | 51.8 | 56% | 29.63 | 0.0 | |||||||
| 04 | 21:15 | S 15 G 20 | 10.00 | Overcast | OVC100 | 69.8 | 50 | 50% | 29.63 | 0.0 | |||||||
| 04 | 20:55 | SW 14 G 21 | 10.00 | Overcast | OVC100 | 69.8 | 50 | 50% | 29.63 | 0.0 | |||||||
| 04 | 20:35 | SW 21 G 25 | 10.00 | Mostly Cloudy and Breezy | BKN100 | 69.8 | 50 | 50% | 29.62 | 0.0 | |||||||
| 04 | 20:15 | SW 17 G 25 | 10.00 | Partly Cloudy | SCT100 | 71.6 | 50 | 47% | 29.62 | 0.0 | |||||||
| 04 | 19:55 | SW 24 G 29 | 10.00 | Fair and Breezy | CLR | 73.4 | 48.2 | 79.2 | 73.2 | 41% | 29.62 | 0.0 | |||||
| 04 | 19:35 | SW 24 G 30 | 10.00 | Fair and Breezy | CLR | 75.2 | 48.2 | 39% | 77 | 29.62 | 0.0 | ||||||
| 04 | 19:15 | SW 21 G 44 | 10.00 | Fair and Breezy | CLR | 75.2 | 46.4 | 36% | 77 | 29.62 | 0.0 | ||||||
| 04 | 18:55 | SW 21 G 32 | 10.00 | Fair and Breezy | CLR | 75.2 | 48.2 | 39% | 77 | 29.62 | 0.0 | ||||||
| 04 | 18:35 | SW 24 G 33 | 10.00 | A Few Clouds and Breezy | FEW100 | 77 | 48.2 | 36% | 78 | 29.62 | 0.0 | ||||||
| 04 | 18:15 | SW 23 G 33 | 10.00 | A Few Clouds and Breezy | FEW100 | 77 | 48.2 | 36% | 78 | 29.62 | 0.0 | ||||||
| 04 | 17:55 | SW 23 G 31 | 10.00 | A Few Clouds and Breezy | FEW100 | 78.8 | 50 | 37% | 79 | 29.62 | 0.0 | ||||||
| 04 | 17:35 | SW 28 G 35 | 10.00 | Partly Cloudy and Windy | SCT100 | 77 | 50 | 39% | 78 | 29.61 | 0.0 | ||||||
| 04 | 17:15 | SW 25 G 39 | 10.00 | Partly Cloudy and Breezy | FEW070 FEW080 SCT110 | 78.8 | 50 | 37% | 79 | 29.62 | 0.0 | ||||||
| Date | Time (edt) | Wind (mph) | Vis. (mi.) | Weather | Sky Cond. | Air | Dwpt | Max. | Min. | Relative Humidity | Wind Chill (°F) | Heat Index (°F) | altimeter (in) | sea level (mb) | 1 hr | 3 hr | 6 hr |
| 6 hour | |||||||||||||||||
| Temperature (ºF) | Pressure | Precipitation (in) | |||||||||||||||